sensor_id;sensor_type;location;lat;lon;timestamp;P1;durP1;ratioP1;P2;durP2;ratioP2
71343;SDS011;59146;43.850;25.948;2022-09-09T00:01:58;10.45;;;2.97;;
71343;SDS011;59146;43.850;25.948;2022-09-09T00:04:30;5.97;;;3.08;;
71343;SDS011;59146;43.850;25.948;2022-09-09T00:07:03;4.65;;;2.88;;
71343;SDS011;59146;43.850;25.948;2022-09-09T00:15:20;6.18;;;2.88;;
71343;SDS011;59146;43.850;25.948;2022-09-09T00:21:07;4.43;;;2.72;;
71343;SDS011;59146;43.850;25.948;2022-09-09T00:23:48;4.80;;;2.72;;
71343;SDS011;59146;43.850;25.948;2022-09-09T00:29:03;4.60;;;2.72;;
71343;SDS011;59146;43.850;25.948;2022-09-09T00:31:50;5.28;;;2.90;;
71343;SDS011;59146;43.850;25.948;2022-09-09T00:34:22;4.85;;;2.47;;
71343;SDS011;59146;43.850;25.948;2022-09-09T00:36:52;7.55;;;3.25;;
71343;SDS011;59146;43.850;25.948;2022-09-09T00:39:40;4.70;;;3.05;;
71343;SDS011;59146;43.850;25.948;2022-09-09T00:42:25;3.55;;;2.90;;
71343;SDS011;59146;43.850;25.948;2022-09-09T00:47:57;3.67;;;3.10;;
71343;SDS011;59146;43.850;25.948;2022-09-09T00:56:17;3.75;;;2.78;;
71343;SDS011;59146;43.850;25.948;2022-09-09T00:58:59;6.32;;;2.85;;
71343;SDS011;59146;43.850;25.948;2022-09-09T01:01:32;6.88;;;3.15;;
71343;SDS011;59146;43.850;25.948;2022-09-09T01:03:58;6.43;;;2.58;;
71343;SDS011;59146;43.850;25.948;2022-09-09T01:06:29;4.45;;;2.60;;
71343;SDS011;59146;43.850;25.948;2022-09-09T01:17:23;3.72;;;2.70;;
71343;SDS011;59146;43.850;25.948;2022-09-09T01:20:10;5.57;;;3.33;;
71343;SDS011;59146;43.850;25.948;2022-09-09T01:28:09;4.72;;;2.88;;
71343;SDS011;59146;43.850;25.948;2022-09-09T01:30:39;5.22;;;2.90;;
71343;SDS011;59146;43.850;25.948;2022-09-09T01:33:07;5.75;;;3.03;;
71343;SDS011;59146;43.850;25.948;2022-09-09T01:38:06;8.85;;;2.95;;
71343;SDS011;59146;43.850;25.948;2022-09-09T01:40:32;6.75;;;3.00;;
71343;SDS011;59146;43.850;25.948;2022-09-09T01:42:57;7.97;;;2.92;;
71343;SDS011;59146;43.850;25.948;2022-09-09T01:45:23;5.10;;;2.88;;
71343;SDS011;59146;43.850;25.948;2022-09-09T01:47:50;7.00;;;2.78;;
71343;SDS011;59146;43.850;25.948;2022-09-09T01:50:17;4.70;;;2.80;;
71343;SDS011;59146;43.850;25.948;2022-09-09T01:52:43;5.72;;;3.05;;
71343;SDS011;59146;43.850;25.948;2022-09-09T01:55:12;7.30;;;3.10;;
71343;SDS011;59146;43.850;25.948;2022-09-09T02:00:26;4.45;;;2.75;;
71343;SDS011;59146;43.850;25.948;2022-09-09T02:05:45;9.95;;;2.80;;
71343;SDS011;59146;43.850;25.948;2022-09-09T02:08:44;4.68;;;2.95;;
71343;SDS011;59146;43.850;25.948;2022-09-09T02:11:14;7.32;;;2.90;;
71343;SDS011;59146;43.850;25.948;2022-09-09T02:13:41;4.18;;;2.88;;
71343;SDS011;59146;43.850;25.948;2022-09-09T02:18:54;9.32;;;2.72;;
71343;SDS011;59146;43.850;25.948;2022-09-09T02:21:21;7.97;;;3.10;;
71343;SDS011;59146;43.850;25.948;2022-09-09T02:23:48;5.78;;;2.55;;
71343;SDS011;59146;43.850;25.948;2022-09-09T02:26:17;6.60;;;2.80;;
71343;SDS011;59146;43.850;25.948;2022-09-09T02:28:47;6.35;;;2.72;;
71343;SDS011;59146;43.850;25.948;2022-09-09T02:31:16;3.78;;;2.95;;
71343;SDS011;59146;43.850;25.948;2022-09-09T02:33:46;7.50;;;3.00;;
71343;SDS011;59146;43.850;25.948;2022-09-09T02:36:16;4.05;;;2.70;;
71343;SDS011;59146;43.850;25.948;2022-09-09T02:38:45;3.78;;;2.55;;
71343;SDS011;59146;43.850;25.948;2022-09-09T02:41:17;3.88;;;3.08;;
71343;SDS011;59146;43.850;25.948;2022-09-09T02:43:46;4.18;;;2.80;;
71343;SDS011;59146;43.850;25.948;2022-09-09T02:46:32;3.67;;;3.00;;
71343;SDS011;59146;43.850;25.948;2022-09-09T02:49:06;5.80;;;3.58;;
71343;SDS011;59146;43.850;25.948;2022-09-09T02:54:20;4.30;;;2.75;;
71343;SDS011;59146;43.850;25.948;2022-09-09T02:56:52;5.57;;;2.90;;
71343;SDS011;59146;43.850;25.948;2022-09-09T03:01:45;20.65;;;4.72;;
71343;SDS011;59146;43.850;25.948;2022-09-09T03:04:10;5.68;;;3.10;;
71343;SDS011;59146;43.850;25.948;2022-09-09T03:06:36;4.88;;;3.38;;
71343;SDS011;59146;43.850;25.948;2022-09-09T03:09:01;6.68;;;3.38;;
71343;SDS011;59146;43.850;25.948;2022-09-09T03:11:27;5.32;;;3.40;;
71343;SDS011;59146;43.850;25.948;2022-09-09T03:13:53;3.83;;;3.08;;
71343;SDS011;59146;43.850;25.948;2022-09-09T03:16:21;6.32;;;2.80;;
71343;SDS011;59146;43.850;25.948;2022-09-09T03:18:49;7.50;;;3.25;;
71343;SDS011;59146;43.850;25.948;2022-09-09T03:21:15;5.53;;;3.42;;
71343;SDS011;59146;43.850;25.948;2022-09-09T03:23:40;6.22;;;3.10;;
71343;SDS011;59146;43.850;25.948;2022-09-09T03:26:06;8.27;;;3.55;;
71343;SDS011;59146;43.850;25.948;2022-09-09T03:28:32;9.13;;;3.42;;
71343;SDS011;59146;43.850;25.948;2022-09-09T03:31:01;7.95;;;3.83;;
71343;SDS011;59146;43.850;25.948;2022-09-09T03:33:27;25.95;;;5.55;;
71343;SDS011;59146;43.850;25.948;2022-09-09T03:35:53;13.38;;;3.40;;
71343;SDS011;59146;43.850;25.948;2022-09-09T03:38:22;16.75;;;4.15;;
71343;SDS011;59146;43.850;25.948;2022-09-09T03:40:51;13.70;;;3.08;;
71343;SDS011;59146;43.850;25.948;2022-09-09T03:43:21;4.43;;;2.95;;
71343;SDS011;59146;43.850;25.948;2022-09-09T03:45:47;5.35;;;3.10;;
71343;SDS011;59146;43.850;25.948;2022-09-09T03:48:13;10.35;;;2.75;;
71343;SDS011;59146;43.850;25.948;2022-09-09T03:50:39;9.13;;;4.22;;
71343;SDS011;59146;43.850;25.948;2022-09-09T03:53:09;9.32;;;3.17;;
71343;SDS011;59146;43.850;25.948;2022-09-09T03:55:34;10.80;;;3.40;;
71343;SDS011;59146;43.850;25.948;2022-09-09T03:58:00;6.60;;;3.45;;
71343;SDS011;59146;43.850;25.948;2022-09-09T04:00:25;3.47;;;2.78;;
71343;SDS011;59146;43.850;25.948;2022-09-09T04:02:51;3.53;;;2.80;;
71343;SDS011;59146;43.850;25.948;2022-09-09T04:05:20;6.70;;;3.10;;
71343;SDS011;59146;43.850;25.948;2022-09-09T04:07:46;6.95;;;3.33;;
71343;SDS011;59146;43.850;25.948;2022-09-09T04:10:12;5.40;;;3.00;;
71343;SDS011;59146;43.850;25.948;2022-09-09T04:12:38;9.38;;;5.95;;
71343;SDS011;59146;43.850;25.948;2022-09-09T04:15:04;8.10;;;3.40;;
71343;SDS011;59146;43.850;25.948;2022-09-09T04:17:29;11.00;;;3.50;;
71343;SDS011;59146;43.850;25.948;2022-09-09T04:19:55;15.07;;;4.05;;
71343;SDS011;59146;43.850;25.948;2022-09-09T04:22:22;7.93;;;3.35;;
71343;SDS011;59146;43.850;25.948;2022-09-09T04:24:47;5.35;;;3.60;;
71343;SDS011;59146;43.850;25.948;2022-09-09T04:27:12;9.43;;;3.67;;
71343;SDS011;59146;43.850;25.948;2022-09-09T04:29:38;9.18;;;3.80;;
71343;SDS011;59146;43.850;25.948;2022-09-09T04:32:03;9.40;;;3.83;;
71343;SDS011;59146;43.850;25.948;2022-09-09T04:34:29;8.45;;;3.72;;
71343;SDS011;59146;43.850;25.948;2022-09-09T04:36:56;8.93;;;3.58;;
71343;SDS011;59146;43.850;25.948;2022-09-09T04:39:22;17.00;;;3.92;;
71343;SDS011;59146;43.850;25.948;2022-09-09T04:41:47;13.30;;;3.50;;
71343;SDS011;59146;43.850;25.948;2022-09-09T04:44:13;24.05;;;4.72;;
71343;SDS011;59146;43.850;25.948;2022-09-09T04:46:39;23.63;;;4.43;;
71343;SDS011;59146;43.850;25.948;2022-09-09T04:49:06;33.72;;;4.53;;
71343;SDS011;59146;43.850;25.948;2022-09-09T04:51:31;14.73;;;4.25;;
71343;SDS011;59146;43.850;25.948;2022-09-09T04:53:57;14.38;;;3.83;;
71343;SDS011;59146;43.850;25.948;2022-09-09T04:56:22;13.95;;;3.20;;
71343;SDS011;59146;43.850;25.948;2022-09-09T04:58:47;14.07;;;4.30;;
71343;SDS011;59146;43.850;25.948;2022-09-09T05:01:14;16.73;;;3.85;;
71343;SDS011;59146;43.850;25.948;2022-09-09T05:03:42;10.13;;;3.50;;
71343;SDS011;59146;43.850;25.948;2022-09-09T05:06:11;9.95;;;3.08;;
71343;SDS011;59146;43.850;25.948;2022-09-09T05:08:38;18.45;;;3.75;;
71343;SDS011;59146;43.850;25.948;2022-09-09T05:11:14;9.07;;;3.05;;
71343;SDS011;59146;43.850;25.948;2022-09-09T05:13:51;15.63;;;3.10;;
71343;SDS011;59146;43.850;25.948;2022-09-09T05:16:18;17.75;;;3.33;;
71343;SDS011;59146;43.850;25.948;2022-09-09T05:18:44;12.88;;;3.75;;
71343;SDS011;59146;43.850;25.948;2022-09-09T05:21:15;14.50;;;3.80;;
71343;SDS011;59146;43.850;25.948;2022-09-09T05:23:42;10.68;;;3.15;;
71343;SDS011;59146;43.850;25.948;2022-09-09T05:26:09;7.63;;;2.90;;
71343;SDS011;59146;43.850;25.948;2022-09-09T05:28:38;17.58;;;3.60;;
71343;SDS011;59146;43.850;25.948;2022-09-09T05:31:05;13.23;;;3.67;;
71343;SDS011;59146;43.850;25.948;2022-09-09T05:33:33;34.15;;;6.50;;
71343;SDS011;59146;43.850;25.948;2022-09-09T05:36:00;22.25;;;3.80;;
71343;SDS011;59146;43.850;25.948;2022-09-09T05:38:30;15.13;;;3.72;;
71343;SDS011;59146;43.850;25.948;2022-09-09T05:40:58;20.25;;;3.63;;
71343;SDS011;59146;43.850;25.948;2022-09-09T05:43:24;17.98;;;3.47;;
71343;SDS011;59146;43.850;25.948;2022-09-09T05:46:03;11.82;;;3.42;;
71343;SDS011;59146;43.850;25.948;2022-09-09T05:48:37;10.25;;;3.28;;
71343;SDS011;59146;43.850;25.948;2022-09-09T05:51:04;7.72;;;3.33;;
71343;SDS011;59146;43.850;25.948;2022-09-09T05:53:34;13.35;;;3.60;;
71343;SDS011;59146;43.850;25.948;2022-09-09T05:56:04;11.60;;;3.08;;
71343;SDS011;59146;43.850;25.948;2022-09-09T05:58:31;11.40;;;3.30;;
71343;SDS011;59146;43.850;25.948;2022-09-09T06:01:17;9.35;;;2.83;;
71343;SDS011;59146;43.850;25.948;2022-09-09T06:03:45;9.88;;;3.25;;
71343;SDS011;59146;43.850;25.948;2022-09-09T06:06:15;8.73;;;3.03;;
71343;SDS011;59146;43.850;25.948;2022-09-09T06:08:48;12.10;;;3.38;;
71343;SDS011;59146;43.850;25.948;2022-09-09T06:13:43;13.25;;;4.35;;
71343;SDS011;59146;43.850;25.948;2022-09-09T06:16:09;10.07;;;3.78;;
71343;SDS011;59146;43.850;25.948;2022-09-09T06:18:39;6.07;;;3.53;;
71343;SDS011;59146;43.850;25.948;2022-09-09T06:21:07;10.43;;;3.53;;
71343;SDS011;59146;43.850;25.948;2022-09-09T06:23:40;11.55;;;3.38;;
71343;SDS011;59146;43.850;25.948;2022-09-09T06:26:07;9.52;;;3.55;;
71343;SDS011;59146;43.850;25.948;2022-09-09T06:28:45;20.17;;;4.75;;
71343;SDS011;59146;43.850;25.948;2022-09-09T06:31:13;12.18;;;4.60;;
71343;SDS011;59146;43.850;25.948;2022-09-09T06:33:41;14.95;;;3.80;;
71343;SDS011;59146;43.850;25.948;2022-09-09T06:36:10;10.05;;;4.18;;
71343;SDS011;59146;43.850;25.948;2022-09-09T06:38:41;11.68;;;3.55;;
71343;SDS011;59146;43.850;25.948;2022-09-09T06:41:07;13.32;;;3.42;;
71343;SDS011;59146;43.850;25.948;2022-09-09T06:43:34;4.68;;;3.03;;
71343;SDS011;59146;43.850;25.948;2022-09-09T06:46:09;13.40;;;3.55;;
71343;SDS011;59146;43.850;25.948;2022-09-09T06:48:38;11.20;;;3.33;;
71343;SDS011;59146;43.850;25.948;2022-09-09T06:51:06;8.73;;;3.60;;
71343;SDS011;59146;43.850;25.948;2022-09-09T06:53:34;9.75;;;3.75;;
71343;SDS011;59146;43.850;25.948;2022-09-09T06:56:23;11.75;;;3.08;;
71343;SDS011;59146;43.850;25.948;2022-09-09T06:59:07;6.63;;;2.90;;
71343;SDS011;59146;43.850;25.948;2022-09-09T07:01:38;6.63;;;2.78;;
71343;SDS011;59146;43.850;25.948;2022-09-09T07:04:06;10.85;;;3.10;;
71343;SDS011;59146;43.850;25.948;2022-09-09T07:06:35;10.98;;;3.90;;
71343;SDS011;59146;43.850;25.948;2022-09-09T07:09:03;11.77;;;3.33;;
71343;SDS011;59146;43.850;25.948;2022-09-09T07:11:40;21.35;;;4.25;;
71343;SDS011;59146;43.850;25.948;2022-09-09T07:14:07;7.80;;;2.90;;
71343;SDS011;59146;43.850;25.948;2022-09-09T07:16:34;8.63;;;3.35;;
71343;SDS011;59146;43.850;25.948;2022-09-09T07:19:01;5.03;;;3.50;;
71343;SDS011;59146;43.850;25.948;2022-09-09T07:21:28;9.48;;;3.83;;
71343;SDS011;59146;43.850;25.948;2022-09-09T07:23:54;8.52;;;3.20;;
71343;SDS011;59146;43.850;25.948;2022-09-09T07:26:22;24.65;;;4.25;;
71343;SDS011;59146;43.850;25.948;2022-09-09T07:28:49;8.30;;;3.08;;
71343;SDS011;59146;43.850;25.948;2022-09-09T07:31:22;11.68;;;3.40;;
71343;SDS011;59146;43.850;25.948;2022-09-09T07:33:50;9.93;;;2.83;;
71343;SDS011;59146;43.850;25.948;2022-09-09T07:38:46;11.82;;;3.50;;
71343;SDS011;59146;43.850;25.948;2022-09-09T07:43:52;19.33;;;3.75;;
71343;SDS011;59146;43.850;25.948;2022-09-09T07:46:22;10.38;;;3.40;;
71343;SDS011;59146;43.850;25.948;2022-09-09T07:48:49;11.27;;;4.55;;
71343;SDS011;59146;43.850;25.948;2022-09-09T07:51:18;10.73;;;3.60;;
71343;SDS011;59146;43.850;25.948;2022-09-09T07:53:47;12.48;;;4.07;;
71343;SDS011;59146;43.850;25.948;2022-09-09T07:56:15;5.78;;;4.13;;
71343;SDS011;59146;43.850;25.948;2022-09-09T07:58:42;17.70;;;3.95;;
71343;SDS011;59146;43.850;25.948;2022-09-09T08:01:10;5.88;;;3.38;;
71343;SDS011;59146;43.850;25.948;2022-09-09T08:03:42;13.13;;;4.25;;
71343;SDS011;59146;43.850;25.948;2022-09-09T08:06:08;9.80;;;3.50;;
71343;SDS011;59146;43.850;25.948;2022-09-09T08:08:34;10.88;;;3.92;;
71343;SDS011;59146;43.850;25.948;2022-09-09T08:11:01;7.63;;;3.80;;
71343;SDS011;59146;43.850;25.948;2022-09-09T08:13:28;8.50;;;3.75;;
71343;SDS011;59146;43.850;25.948;2022-09-09T08:15:53;12.30;;;3.53;;
71343;SDS011;59146;43.850;25.948;2022-09-09T08:18:19;8.68;;;2.97;;
71343;SDS011;59146;43.850;25.948;2022-09-09T08:20:44;8.02;;;3.50;;
71343;SDS011;59146;43.850;25.948;2022-09-09T08:23:10;13.35;;;3.45;;
71343;SDS011;59146;43.850;25.948;2022-09-09T08:25:35;12.13;;;3.97;;
71343;SDS011;59146;43.850;25.948;2022-09-09T08:28:00;9.15;;;3.60;;
71343;SDS011;59146;43.850;25.948;2022-09-09T08:30:26;12.27;;;3.65;;
71343;SDS011;59146;43.850;25.948;2022-09-09T08:32:52;11.07;;;4.18;;
71343;SDS011;59146;43.850;25.948;2022-09-09T08:35:17;10.13;;;3.85;;
71343;SDS011;59146;43.850;25.948;2022-09-09T08:37:42;8.13;;;3.58;;
71343;SDS011;59146;43.850;25.948;2022-09-09T08:40:22;9.43;;;4.45;;
71343;SDS011;59146;43.850;25.948;2022-09-09T08:42:54;4.93;;;3.25;;
71343;SDS011;59146;43.850;25.948;2022-09-09T08:45:29;8.63;;;3.58;;
71343;SDS011;59146;43.850;25.948;2022-09-09T08:50:33;14.80;;;3.97;;
71343;SDS011;59146;43.850;25.948;2022-09-09T08:55:57;14.85;;;4.30;;
71343;SDS011;59146;43.850;25.948;2022-09-09T08:58:25;7.37;;;4.43;;
71343;SDS011;59146;43.850;25.948;2022-09-09T09:12:27;10.57;;;3.28;;
71343;SDS011;59146;43.850;25.948;2022-09-09T09:14:58;8.32;;;3.80;;
71343;SDS011;59146;43.850;25.948;2022-09-09T09:17:25;10.80;;;4.03;;
71343;SDS011;59146;43.850;25.948;2022-09-09T09:19:52;9.38;;;4.18;;
71343;SDS011;59146;43.850;25.948;2022-09-09T09:22:19;6.35;;;3.60;;
71343;SDS011;59146;43.850;25.948;2022-09-09T09:30:38;7.45;;;4.35;;
71343;SDS011;59146;43.850;25.948;2022-09-09T09:33:14;7.45;;;3.58;;
71343;SDS011;59146;43.850;25.948;2022-09-09T09:35:45;7.28;;;3.50;;
71343;SDS011;59146;43.850;25.948;2022-09-09T09:38:21;10.43;;;3.88;;
71343;SDS011;59146;43.850;25.948;2022-09-09T09:40:48;15.50;;;4.60;;
71343;SDS011;59146;43.850;25.948;2022-09-09T09:43:24;10.13;;;4.07;;
71343;SDS011;59146;43.850;25.948;2022-09-09T09:45:52;10.02;;;4.57;;
71343;SDS011;59146;43.850;25.948;2022-09-09T09:48:17;11.60;;;3.75;;
71343;SDS011;59146;43.850;25.948;2022-09-09T09:50:48;10.57;;;3.90;;
71343;SDS011;59146;43.850;25.948;2022-09-09T09:53:26;11.25;;;3.72;;
71343;SDS011;59146;43.850;25.948;2022-09-09T09:55:56;14.07;;;3.90;;
71343;SDS011;59146;43.850;25.948;2022-09-09T09:58:26;5.13;;;3.72;;
71343;SDS011;59146;43.850;25.948;2022-09-09T10:00:56;6.38;;;3.53;;
71343;SDS011;59146;43.850;25.948;2022-09-09T10:03:23;4.93;;;3.70;;
71343;SDS011;59146;43.850;25.948;2022-09-09T10:05:51;8.25;;;3.70;;
71343;SDS011;59146;43.850;25.948;2022-09-09T10:08:18;9.52;;;4.78;;
71343;SDS011;59146;43.850;25.948;2022-09-09T10:19:20;5.32;;;3.60;;
71343;SDS011;59146;43.850;25.948;2022-09-09T10:26:59;7.90;;;4.00;;
71343;SDS011;59146;43.850;25.948;2022-09-09T10:32:28;6.90;;;3.75;;
71343;SDS011;59146;43.850;25.948;2022-09-09T10:35:11;5.82;;;3.53;;
71343;SDS011;59146;43.850;25.948;2022-09-09T10:38:11;8.60;;;3.70;;
71343;SDS011;59146;43.850;25.948;2022-09-09T10:45:47;11.90;;;4.20;;
71343;SDS011;59146;43.850;25.948;2022-09-09T10:48:31;11.05;;;3.83;;
71343;SDS011;59146;43.850;25.948;2022-09-09T10:56:37;8.40;;;3.05;;
71343;SDS011;59146;43.850;25.948;2022-09-09T11:01:46;8.93;;;4.00;;
71343;SDS011;59146;43.850;25.948;2022-09-09T11:04:26;5.82;;;4.15;;
71343;SDS011;59146;43.850;25.948;2022-09-09T11:07:00;5.78;;;3.30;;
71343;SDS011;59146;43.850;25.948;2022-09-09T11:09:31;9.88;;;3.63;;
71343;SDS011;59146;43.850;25.948;2022-09-09T11:12:02;12.13;;;4.00;;
71343;SDS011;59146;43.850;25.948;2022-09-09T11:14:38;10.38;;;3.88;;
71343;SDS011;59146;43.850;25.948;2022-09-09T11:17:12;7.07;;;4.15;;
71343;SDS011;59146;43.850;25.948;2022-09-09T11:19:43;9.07;;;3.90;;
71343;SDS011;59146;43.850;25.948;2022-09-09T11:24:54;9.55;;;3.45;;
71343;SDS011;59146;43.850;25.948;2022-09-09T11:27:32;9.80;;;3.67;;
71343;SDS011;59146;43.850;25.948;2022-09-09T11:30:21;9.00;;;4.43;;
71343;SDS011;59146;43.850;25.948;2022-09-09T11:38:49;9.23;;;3.42;;
71343;SDS011;59146;43.850;25.948;2022-09-09T11:41:16;5.35;;;3.50;;
71343;SDS011;59146;43.850;25.948;2022-09-09T11:43:46;6.72;;;3.63;;
71343;SDS011;59146;43.850;25.948;2022-09-09T11:46:15;5.30;;;3.67;;
71343;SDS011;59146;43.850;25.948;2022-09-09T11:48:45;7.07;;;4.18;;
71343;SDS011;59146;43.850;25.948;2022-09-09T11:51:26;6.72;;;3.50;;
71343;SDS011;59146;43.850;25.948;2022-09-09T11:53:54;7.72;;;3.40;;
71343;SDS011;59146;43.850;25.948;2022-09-09T11:56:44;8.02;;;3.63;;
71343;SDS011;59146;43.850;25.948;2022-09-09T12:04:49;10.13;;;3.38;;
71343;SDS011;59146;43.850;25.948;2022-09-09T12:12:25;13.35;;;4.78;;
71343;SDS011;59146;43.850;25.948;2022-09-09T12:14:59;6.55;;;3.85;;
71343;SDS011;59146;43.850;25.948;2022-09-09T12:17:27;5.80;;;3.63;;
71343;SDS011;59146;43.850;25.948;2022-09-09T12:28:41;8.25;;;3.22;;
71343;SDS011;59146;43.850;25.948;2022-09-09T12:37:13;6.13;;;4.28;;
71343;SDS011;59146;43.850;25.948;2022-09-09T12:39:56;10.07;;;3.70;;
71343;SDS011;59146;43.850;25.948;2022-09-09T12:42:24;4.75;;;3.95;;
71343;SDS011;59146;43.850;25.948;2022-09-09T12:44:51;12.27;;;3.45;;
71343;SDS011;59146;43.850;25.948;2022-09-09T12:47:17;7.53;;;3.70;;
71343;SDS011;59146;43.850;25.948;2022-09-09T12:49:45;7.15;;;4.22;;
71343;SDS011;59146;43.850;25.948;2022-09-09T12:52:21;10.43;;;3.33;;
71343;SDS011;59146;43.850;25.948;2022-09-09T12:54:51;7.55;;;3.67;;
71343;SDS011;59146;43.850;25.948;2022-09-09T12:57:18;6.78;;;3.90;;
71343;SDS011;59146;43.850;25.948;2022-09-09T12:59:46;8.63;;;3.72;;
71343;SDS011;59146;43.850;25.948;2022-09-09T13:02:25;9.88;;;3.60;;
71343;SDS011;59146;43.850;25.948;2022-09-09T13:04:53;9.88;;;3.53;;
71343;SDS011;59146;43.850;25.948;2022-09-09T13:07:19;7.22;;;4.18;;
71343;SDS011;59146;43.850;25.948;2022-09-09T13:09:46;11.18;;;4.00;;
71343;SDS011;59146;43.850;25.948;2022-09-09T13:12:20;10.93;;;3.60;;
71343;SDS011;59146;43.850;25.948;2022-09-09T13:14:53;10.98;;;4.10;;
71343;SDS011;59146;43.850;25.948;2022-09-09T13:19:52;9.60;;;3.22;;
71343;SDS011;59146;43.850;25.948;2022-09-09T13:22:33;7.72;;;3.90;;
71343;SDS011;59146;43.850;25.948;2022-09-09T13:29:56;5.25;;;3.72;;
71343;SDS011;59146;43.850;25.948;2022-09-09T13:32:22;5.78;;;3.35;;
71343;SDS011;59146;43.850;25.948;2022-09-09T13:34:59;6.30;;;3.47;;
71343;SDS011;59146;43.850;25.948;2022-09-09T13:37:33;10.32;;;3.92;;
71343;SDS011;59146;43.850;25.948;2022-09-09T13:40:04;7.88;;;3.50;;
71343;SDS011;59146;43.850;25.948;2022-09-09T13:42:32;5.93;;;3.47;;
71343;SDS011;59146;43.850;25.948;2022-09-09T13:45:01;8.68;;;3.88;;
71343;SDS011;59146;43.850;25.948;2022-09-09T13:47:35;10.13;;;3.72;;
71343;SDS011;59146;43.850;25.948;2022-09-09T13:52:56;9.50;;;3.53;;
71343;SDS011;59146;43.850;25.948;2022-09-09T13:55:24;4.32;;;3.45;;
71343;SDS011;59146;43.850;25.948;2022-09-09T13:57:52;10.07;;;4.13;;
71343;SDS011;59146;43.850;25.948;2022-09-09T14:00:18;8.38;;;3.72;;
71343;SDS011;59146;43.850;25.948;2022-09-09T14:02:43;24.98;;;4.90;;
71343;SDS011;59146;43.850;25.948;2022-09-09T14:05:09;14.98;;;4.88;;
71343;SDS011;59146;43.850;25.948;2022-09-09T14:07:36;21.00;;;5.07;;
71343;SDS011;59146;43.850;25.948;2022-09-09T14:10:03;13.02;;;4.18;;
71343;SDS011;59146;43.850;25.948;2022-09-09T14:12:29;9.73;;;3.78;;
71343;SDS011;59146;43.850;25.948;2022-09-09T14:14:55;7.47;;;3.65;;
71343;SDS011;59146;43.850;25.948;2022-09-09T14:17:20;8.63;;;4.07;;
71343;SDS011;59146;43.850;25.948;2022-09-09T14:19:47;10.68;;;4.00;;
71343;SDS011;59146;43.850;25.948;2022-09-09T14:22:12;13.48;;;3.45;;
71343;SDS011;59146;43.850;25.948;2022-09-09T14:24:38;7.43;;;4.00;;
71343;SDS011;59146;43.850;25.948;2022-09-09T14:27:03;12.13;;;4.78;;
71343;SDS011;59146;43.850;25.948;2022-09-09T14:29:29;13.57;;;4.32;;
71343;SDS011;59146;43.850;25.948;2022-09-09T14:31:54;7.50;;;3.97;;
71343;SDS011;59146;43.850;25.948;2022-09-09T14:34:20;12.50;;;4.95;;
71343;SDS011;59146;43.850;25.948;2022-09-09T14:36:45;11.27;;;4.55;;
71343;SDS011;59146;43.850;25.948;2022-09-09T14:39:11;18.27;;;5.35;;
71343;SDS011;59146;43.850;25.948;2022-09-09T14:41:37;10.70;;;4.25;;
71343;SDS011;59146;43.850;25.948;2022-09-09T14:44:02;13.63;;;4.75;;
71343;SDS011;59146;43.850;25.948;2022-09-09T14:46:28;18.98;;;4.68;;
71343;SDS011;59146;43.850;25.948;2022-09-09T14:48:54;14.68;;;4.47;;
71343;SDS011;59146;43.850;25.948;2022-09-09T14:51:21;24.60;;;6.38;;
71343;SDS011;59146;43.850;25.948;2022-09-09T14:53:48;15.30;;;4.70;;
71343;SDS011;59146;43.850;25.948;2022-09-09T14:56:18;18.27;;;5.38;;
71343;SDS011;59146;43.850;25.948;2022-09-09T14:58:46;22.40;;;6.00;;
71343;SDS011;59146;43.850;25.948;2022-09-09T15:01:12;18.10;;;6.30;;
71343;SDS011;59146;43.850;25.948;2022-09-09T15:03:40;23.20;;;6.63;;
71343;SDS011;59146;43.850;25.948;2022-09-09T15:06:07;20.88;;;6.40;;
71343;SDS011;59146;43.850;25.948;2022-09-09T15:08:34;12.23;;;5.63;;
71343;SDS011;59146;43.850;25.948;2022-09-09T15:11:01;11.40;;;5.32;;
71343;SDS011;59146;43.850;25.948;2022-09-09T15:13:27;22.13;;;6.25;;
71343;SDS011;59146;43.850;25.948;2022-09-09T15:15:53;20.15;;;7.03;;
71343;SDS011;59146;43.850;25.948;2022-09-09T15:18:19;20.48;;;7.72;;
71343;SDS011;59146;43.850;25.948;2022-09-09T15:20:45;14.90;;;5.70;;
71343;SDS011;59146;43.850;25.948;2022-09-09T15:23:11;23.83;;;9.52;;
71343;SDS011;59146;43.850;25.948;2022-09-09T15:25:37;19.77;;;6.72;;
71343;SDS011;59146;43.850;25.948;2022-09-09T15:28:03;19.27;;;6.57;;
71343;SDS011;59146;43.850;25.948;2022-09-09T15:30:28;18.30;;;6.50;;
71343;SDS011;59146;43.850;25.948;2022-09-09T15:32:53;16.40;;;6.43;;
71343;SDS011;59146;43.850;25.948;2022-09-09T15:35:19;11.13;;;6.38;;
71343;SDS011;59146;43.850;25.948;2022-09-09T15:37:45;11.27;;;6.20;;
71343;SDS011;59146;43.850;25.948;2022-09-09T15:40:10;27.10;;;6.68;;
71343;SDS011;59146;43.850;25.948;2022-09-09T15:42:36;17.75;;;6.97;;
71343;SDS011;59146;43.850;25.948;2022-09-09T15:45:02;21.27;;;6.85;;
71343;SDS011;59146;43.850;25.948;2022-09-09T15:47:27;17.73;;;7.72;;
71343;SDS011;59146;43.850;25.948;2022-09-09T15:49:53;27.40;;;7.22;;
71343;SDS011;59146;43.850;25.948;2022-09-09T15:52:18;25.83;;;8.15;;
71343;SDS011;59146;43.850;25.948;2022-09-09T15:54:44;20.65;;;8.73;;
71343;SDS011;59146;43.850;25.948;2022-09-09T15:57:11;25.13;;;8.18;;
71343;SDS011;59146;43.850;25.948;2022-09-09T15:59:37;16.35;;;7.85;;
71343;SDS011;59146;43.850;25.948;2022-09-09T16:02:03;22.77;;;7.80;;
71343;SDS011;59146;43.850;25.948;2022-09-09T16:04:29;18.55;;;7.95;;
71343;SDS011;59146;43.850;25.948;2022-09-09T16:06:56;20.63;;;9.02;;
71343;SDS011;59146;43.850;25.948;2022-09-09T16:09:23;19.50;;;8.77;;
71343;SDS011;59146;43.850;25.948;2022-09-09T16:11:49;23.15;;;7.18;;
71343;SDS011;59146;43.850;25.948;2022-09-09T16:14:16;26.95;;;7.75;;
71343;SDS011;59146;43.850;25.948;2022-09-09T16:16:42;15.65;;;6.70;;
71343;SDS011;59146;43.850;25.948;2022-09-09T16:19:09;18.08;;;6.75;;
71343;SDS011;59146;43.850;25.948;2022-09-09T16:21:38;13.85;;;5.45;;
71343;SDS011;59146;43.850;25.948;2022-09-09T16:24:08;13.18;;;6.45;;
71343;SDS011;59146;43.850;25.948;2022-09-09T16:26:36;14.30;;;7.03;;
71343;SDS011;59146;43.850;25.948;2022-09-09T16:29:03;16.77;;;6.90;;
71343;SDS011;59146;43.850;25.948;2022-09-09T16:31:29;23.65;;;8.00;;
71343;SDS011;59146;43.850;25.948;2022-09-09T16:33:59;19.00;;;8.68;;
71343;SDS011;59146;43.850;25.948;2022-09-09T16:36:28;20.15;;;6.57;;
71343;SDS011;59146;43.850;25.948;2022-09-09T16:38:56;15.00;;;6.38;;
71343;SDS011;59146;43.850;25.948;2022-09-09T16:41:26;9.20;;;6.55;;
71343;SDS011;59146;43.850;25.948;2022-09-09T16:43:53;20.80;;;7.47;;
71343;SDS011;59146;43.850;25.948;2022-09-09T16:46:20;15.35;;;5.60;;
71343;SDS011;59146;43.850;25.948;2022-09-09T16:48:47;13.52;;;6.45;;
71343;SDS011;59146;43.850;25.948;2022-09-09T16:51:22;24.33;;;6.75;;
71343;SDS011;59146;43.850;25.948;2022-09-09T16:53:59;11.02;;;5.65;;
71343;SDS011;59146;43.850;25.948;2022-09-09T16:56:27;20.65;;;7.05;;
71343;SDS011;59146;43.850;25.948;2022-09-09T16:58:54;13.48;;;6.70;;
71343;SDS011;59146;43.850;25.948;2022-09-09T17:01:24;20.95;;;6.95;;
71343;SDS011;59146;43.850;25.948;2022-09-09T17:03:57;17.15;;;7.38;;
71343;SDS011;59146;43.850;25.948;2022-09-09T17:06:27;23.48;;;7.95;;
71343;SDS011;59146;43.850;25.948;2022-09-09T17:08:54;25.65;;;7.70;;
71343;SDS011;59146;43.850;25.948;2022-09-09T17:11:22;19.40;;;7.72;;
71343;SDS011;59146;43.850;25.948;2022-09-09T17:13:48;13.38;;;7.05;;
71343;SDS011;59146;43.850;25.948;2022-09-09T17:16:15;20.20;;;7.47;;